Time;durP1;ratioP1;P1;durP2;ratioP2;P2;SDS_P1;SDS_P2;PMS_P1;PMS_P2;Temp;Humidity;BMP_temperature;BMP_pressure;BME280_temperature;BME280_humidity;BME280_pressure;Samples;Min_cycle;Max_cycle;Signal;HPM_P1;HPM_P2
2021/12/11 00:01:01;;;;;;;1.93;1.57;;;7.60;82.10;7.70;94978.00;;;;5067879;28;20634;-89
2021/12/11 00:03:34;;;;;;;2.03;1.50;;;7.60;82.00;7.70;94985.00;;;;5053264;28;20208;-90
2021/12/11 00:06:07;;;;;;;1.30;1.20;;;7.70;82.00;7.70;94990.00;;;;5051096;28;20189;-89
2021/12/11 00:08:36;;;;;;;1.77;1.20;;;7.70;81.90;7.70;94996.00;;;;5052277;28;20686;-89
2021/12/11 00:11:13;;;;;;;1.60;1.27;;;7.70;81.90;7.70;94994.00;;;;5052009;28;20204;-90
2021/12/11 00:13:44;;;;;;;1.30;1.13;;;7.70;81.60;7.80;95000.00;;;;5052183;28;20259;-89
2021/12/11 00:16:18;;;;;;;1.07;1.00;;;8.90;82.70;7.80;95003.00;;;;5051635;28;20205;-89
2021/12/11 00:18:51;;;;;;;1.63;1.53;;;7.70;81.90;7.70;95011.00;;;;5058552;28;20221;-90
2021/12/11 00:21:20;;;;;;;1.30;1.20;;;7.70;81.70;7.80;95011.00;;;;5066654;28;20200;-89
2021/12/11 00:23:52;;;;;;;5.23;1.70;;;7.70;81.60;7.70;95005.00;;;;5071985;28;20192;-89
2021/12/11 00:26:29;;;;;;;1.73;1.40;;;7.80;81.60;7.70;95006.00;;;;5071528;28;20228;-89
2021/12/11 00:28:57;;;;;;;1.27;1.10;;;7.70;81.60;7.70;95016.00;;;;5071985;28;20298;-89
2021/12/11 00:31:24;;;;;;;1.10;1.10;;;8.20;82.30;7.70;95018.00;;;;5071915;28;20199;-90
2021/12/11 00:33:53;;;;;;;1.47;1.00;;;7.70;81.80;7.70;95030.00;;;;5068713;28;20291;-90
2021/12/11 00:36:24;;;;;;;1.40;1.13;;;7.70;81.60;7.70;95034.00;;;;5068931;28;20200;-89
2021/12/11 00:38:53;;;;;;;2.73;1.37;;;7.70;81.50;7.70;95032.00;;;;5071983;28;20212;-88
2021/12/11 00:41:25;;;;;;;3.70;1.30;;;8.30;81.70;7.70;95035.00;;;;5071552;28;20203;-89
2021/12/11 00:44:00;;;;;;;1.00;0.90;;;7.70;81.50;7.70;95032.00;;;;5070877;28;20181;-89
2021/12/11 00:46:29;;;;;;;0.90;0.90;;;8.60;82.10;7.70;95049.00;;;;5071685;28;20214;-88
2021/12/11 00:49:07;;;;;;;2.50;1.20;;;7.70;81.40;7.70;95056.00;;;;5069099;28;20736;-88
2021/12/11 00:51:35;;;;;;;1.30;1.20;;;7.60;81.70;7.70;95051.00;;;;5075124;28;20204;-88
2021/12/11 00:54:03;;;;;;;1.80;1.00;;;7.60;81.10;7.70;95068.00;;;;5074768;28;20210;-89
2021/12/11 00:56:38;;;;;;;2.10;0.80;;;7.90;81.60;7.70;95073.00;;;;5074912;28;20188;-88
2021/12/11 00:59:09;;;;;;;3.00;0.90;;;8.90;81.90;7.70;95048.00;;;;5075369;28;20216;-89
2021/12/11 01:01:40;;;;;;;1.50;0.87;;;7.70;81.30;7.70;95073.00;;;;5075380;28;20188;-88
2021/12/11 01:04:12;;;;;;;0.90;0.90;;;7.70;81.40;7.70;95077.00;;;;5072091;28;20224;-89
2021/12/11 01:06:48;;;;;;;2.67;1.10;;;8.20;81.80;7.70;95088.00;;;;5076527;28;20183;-89
2021/12/11 01:09:20;;;;;;;0.90;0.63;;;7.70;81.30;7.70;95083.00;;;;5080331;28;20246;-89
2021/12/11 01:11:54;;;;;;;3.17;1.00;;;7.70;81.10;7.70;95097.00;;;;5084596;28;20227;-88
2021/12/11 01:14:31;;;;;;;2.10;1.00;;;7.70;81.20;7.70;95105.00;;;;5076140;28;20211;-88
2021/12/11 01:17:05;;;;;;;1.37;0.80;;;7.80;81.40;7.70;95099.00;;;;5075558;28;20242;-89
2021/12/11 01:19:37;;;;;;;0.70;0.70;;;7.70;81.20;7.70;95108.00;;;;5054996;28;20216;-89
2021/12/11 01:22:11;;;;;;;0.90;0.80;;;7.70;80.90;7.70;95112.00;;;;5052564;28;20650;-89
2021/12/11 01:24:44;;;;;;;0.77;0.77;;;7.90;81.00;7.70;95114.00;;;;5059249;28;20215;-88
2021/12/11 01:27:19;;;;;;;0.70;0.70;;;7.80;81.10;7.70;95112.00;;;;5074564;28;20180;-89
2021/12/11 01:29:49;;;;;;;1.97;0.80;;;7.80;80.60;7.70;95123.00;;;;5074177;28;20216;-89
2021/12/11 01:32:18;;;;;;;0.70;0.70;;;7.90;80.60;7.70;95127.00;;;;5056634;28;20200;-89
2021/12/11 01:34:46;;;;;;;1.60;0.63;;;7.70;80.50;7.60;95123.00;;;;5054772;28;20207;-89
2021/12/11 01:37:16;;;;;;;0.70;0.70;;;7.70;80.30;7.60;95132.00;;;;5054527;28;20215;-88
2021/12/11 01:39:44;;;;;;;2.03;0.93;;;7.70;80.50;7.60;95129.00;;;;5054786;28;20607;-89
2021/12/11 01:42:18;;;;;;;1.33;0.70;;;7.70;80.80;7.60;95131.00;;;;5054631;28;20284;-89
2021/12/11 01:44:48;;;;;;;1.67;0.80;;;7.60;80.70;7.60;95142.00;;;;5055329;28;20204;-89
2021/12/11 01:47:21;;;;;;;0.67;0.63;;;8.10;80.70;7.60;95139.00;;;;5055340;28;20204;-89
2021/12/11 01:49:53;;;;;;;0.73;0.53;;;7.70;80.50;7.50;95147.00;;;;5055298;28;20221;-88
2021/12/11 01:52:32;;;;;;;0.67;0.60;;;7.70;80.50;7.50;95147.00;;;;5075022;28;20195;-89
2021/12/11 01:55:01;;;;;;;0.80;0.80;;;7.60;80.70;7.60;95152.00;;;;5075635;28;20208;-88
2021/12/11 01:57:32;;;;;;;0.70;0.70;;;7.60;81.20;7.60;95153.00;;;;5075132;28;20692;-88
2021/12/11 02:00:10;;;;;;;0.83;0.77;;;7.70;80.20;7.60;95158.00;;;;5074529;28;20220;-88
2021/12/11 02:02:43;;;;;;;0.80;0.80;;;7.70;80.50;7.50;95161.00;;;;5076029;28;20184;-89
2021/12/11 02:05:12;;;;;;;1.50;0.63;;;7.60;80.50;7.50;95158.00;;;;5075366;28;20234;-88
2021/12/11 02:07:44;;;;;;;0.93;0.73;;;7.70;80.70;7.50;95160.00;;;;5075563;28;20192;-88
2021/12/11 02:10:20;;;;;;;1.20;0.80;;;7.60;80.60;7.50;95158.00;;;;5083768;28;20283;-89
2021/12/11 02:12:51;;;;;;;1.33;0.57;;;7.60;80.70;7.50;95167.00;;;;5091116;28;20222;-89
2021/12/11 02:15:31;;;;;;;1.10;0.70;;;7.60;80.70;7.50;95174.00;;;;5090181;28;20679;-89
2021/12/11 02:18:08;;;;;;;0.57;0.43;;;7.60;80.20;7.50;95180.00;;;;5090301;28;20192;-89
2021/12/11 02:20:42;;;;;;;0.83;0.70;;;7.60;80.60;7.50;95180.00;;;;5091352;28;20196;-89
2021/12/11 02:23:15;;;;;;;1.13;0.50;;;7.60;80.80;7.50;95189.00;;;;5087941;28;20256;-89
2021/12/11 02:25:47;;;;;;;2.50;0.77;;;7.60;80.60;7.50;95188.00;;;;5066303;28;20277;-89
2021/12/11 02:28:22;;;;;;;0.57;0.57;;;7.50;80.30;7.50;95201.00;;;;5074703;28;20223;-89
2021/12/11 02:31:00;;;;;;;1.33;0.80;;;7.60;80.50;7.60;95206.00;;;;5074656;28;20601;-89
2021/12/11 02:33:33;;;;;;;0.60;0.53;;;7.60;80.40;7.50;95212.00;;;;5074157;28;20202;-89
2021/12/11 02:36:10;;;;;;;1.03;0.50;;;7.60;80.70;7.60;95211.00;;;;5053887;28;20185;-89
2021/12/11 02:38:46;;;;;;;0.67;0.67;;;7.70;80.50;7.60;95211.00;;;;5053939;28;20232;-89
2021/12/11 02:41:22;;;;;;;0.60;0.60;;;7.60;80.50;7.60;95212.00;;;;5054036;28;20177;-88
2021/12/11 02:43:54;;;;;;;1.00;0.67;;;7.70;80.60;7.60;95213.00;;;;5054893;28;20203;-89
2021/12/11 02:46:27;;;;;;;1.33;0.70;;;7.60;80.80;7.60;95212.00;;;;5073581;28;20231;-88
2021/12/11 02:49:05;;;;;;;0.60;0.60;;;7.60;80.40;7.60;95220.00;;;;5073797;28;20222;-89
2021/12/11 02:51:36;;;;;;;1.37;0.70;;;7.70;80.40;7.60;95225.00;;;;5073476;28;20176;-89
2021/12/11 02:54:11;;;;;;;1.03;0.40;;;7.70;80.80;7.60;95232.00;;;;5072610;28;20180;-89
2021/12/11 02:56:45;;;;;;;0.93;0.90;;;7.60;80.60;7.60;95237.00;;;;5053852;28;20208;-89
2021/12/11 02:59:17;;;;;;;1.50;0.53;;;7.60;80.80;7.50;95225.00;;;;5053270;28;20227;-88
2021/12/11 03:01:49;;;;;;;0.80;0.80;;;8.70;81.30;7.50;95234.00;;;;5053613;28;20280;-89
2021/12/11 03:04:26;;;;;;;1.73;0.60;;;7.70;80.50;7.60;95244.00;;;;5059188;28;20199;-89
2021/12/11 03:06:55;;;;;;;0.73;0.67;;;7.60;80.60;7.60;95236.00;;;;5072929;28;20269;-89
2021/12/11 03:09:29;;;;;;;1.83;0.70;;;7.70;80.40;7.50;95239.00;;;;5072535;28;20277;-89
2021/12/11 03:11:59;;;;;;;1.10;0.60;;;7.60;80.20;7.60;95243.00;;;;5063346;28;20187;-89
2021/12/11 03:14:28;;;;;;;0.70;0.63;;;7.60;80.20;7.60;95246.00;;;;5069572;28;20188;-89
2021/12/11 03:16:57;;;;;;;0.77;0.77;;;7.60;80.20;7.60;95244.00;;;;5058780;28;20188;-88
2021/12/11 03:19:31;;;;;;;2.13;0.70;;;7.60;80.20;7.60;95266.00;;;;5070506;28;20599;-89
2021/12/11 03:22:04;;;;;;;0.70;0.60;;;7.60;80.20;7.60;95270.00;;;;5053300;28;20177;-89
2021/12/11 03:24:34;;;;;;;1.47;0.80;;;7.60;80.60;7.60;95268.00;;;;5052481;28;20562;-89
2021/12/11 03:27:01;;;;;;;0.80;0.70;;;7.70;80.20;7.60;95270.00;;;;5058287;28;20195;-89
2021/12/11 03:29:29;;;;;;;0.90;0.60;;;7.60;80.20;7.60;95273.00;;;;5072688;28;20212;-89
2021/12/11 03:31:58;;;;;;;0.60;0.60;;;7.70;80.00;7.60;95280.00;;;;5072660;28;20378;-89
2021/12/11 03:34:30;;;;;;;0.57;0.57;;;7.60;80.20;7.60;95278.00;;;;5072718;28;20214;-89
2021/12/11 03:37:00;;;;;;;1.63;0.67;;;7.70;80.10;7.60;95288.00;;;;5072929;28;20211;-89
2021/12/11 03:39:36;;;;;;;1.13;0.80;;;7.60;80.10;7.60;95282.00;;;;5057801;28;20216;-87
2021/12/11 03:42:10;;;;;;;1.20;0.90;;;7.70;79.90;7.60;95290.00;;;;5058526;28;20622;-87
2021/12/11 03:44:37;;;;;;;0.47;0.47;;;7.60;80.00;7.60;95295.00;;;;5051334;28;20180;-87
2021/12/11 03:47:11;;;;;;;0.87;0.70;;;7.70;80.00;7.60;95292.00;;;;5053526;28;20204;-87
2021/12/11 03:49:38;;;;;;;0.70;0.70;;;7.70;80.00;7.60;95300.00;;;;5071362;28;20212;-87
2021/12/11 03:52:08;;;;;;;0.70;0.70;;;7.60;79.90;7.60;95304.00;;;;5071462;28;20674;-87
2021/12/11 03:54:41;;;;;;;0.87;0.77;;;7.70;80.20;7.60;95313.00;;;;5070808;28;20207;-87
2021/12/11 03:57:15;;;;;;;0.83;0.80;;;7.60;80.20;7.60;95314.00;;;;5051992;28;20185;-87
2021/12/11 03:59:48;;;;;;;0.70;0.70;;;7.60;81.10;7.60;95320.00;;;;5063792;28;20219;-87
2021/12/11 04:02:18;;;;;;;0.83;0.83;;;7.60;80.20;7.60;95314.00;;;;5066876;28;20188;-87
2021/12/11 04:04:51;;;;;;;1.23;1.00;;;7.60;80.10;7.50;95317.00;;;;5070555;28;20298;-86
2021/12/11 04:07:22;;;;;;;1.07;0.70;;;7.70;80.20;7.50;95318.00;;;;5070792;28;20184;-87
2021/12/11 04:09:52;;;;;;;0.97;0.70;;;7.60;80.40;7.50;95318.00;;;;5071367;28;20222;-87
2021/12/11 04:12:22;;;;;;;0.80;0.80;;;7.60;80.10;7.50;95324.00;;;;5065568;28;20999;-87
2021/12/11 04:14:52;;;;;;;1.13;0.90;;;7.60;80.20;7.50;95334.00;;;;5070585;28;20196;-87
2021/12/11 04:17:23;;;;;;;0.60;0.60;;;7.60;80.20;7.50;95332.00;;;;5071464;28;20562;-87
2021/12/11 04:19:52;;;;;;;0.80;0.70;;;7.70;80.60;7.50;95330.00;;;;5049251;28;20263;-87
2021/12/11 04:22:19;;;;;;;1.30;0.97;;;7.60;80.20;7.50;95346.00;;;;5052370;28;20196;-87
2021/12/11 04:24:48;;;;;;;0.80;0.80;;;7.60;80.30;7.50;95349.00;;;;5055571;28;20199;-87
2021/12/11 04:27:20;;;;;;;1.07;0.90;;;7.60;80.20;7.50;95352.00;;;;5058095;28;20195;-87
2021/12/11 04:29:51;;;;;;;1.37;0.83;;;7.60;80.20;7.60;95355.00;;;;5097912;28;20216;-87
2021/12/11 04:32:19;;;;;;;0.80;0.77;;;7.60;80.30;7.60;95358.00;;;;5080537;28;20196;-87
2021/12/11 04:34:48;;;;;;;0.90;0.80;;;7.60;80.20;7.60;95358.00;;;;5074715;28;20206;-87
2021/12/11 04:37:23;;;;;;;1.33;1.03;;;7.70;80.10;7.60;95363.00;;;;5074285;28;20196;-87
2021/12/11 04:39:58;;;;;;;1.00;0.90;;;7.60;80.00;7.60;95362.00;;;;5055029;28;20220;-87
2021/12/11 04:42:41;;;;;;;0.90;0.90;;;7.70;80.30;7.60;95374.00;;;;5053522;28;20753;-87
2021/12/11 04:45:15;;;;;;;0.80;0.80;;;7.70;80.40;7.60;95371.00;;;;5054406;28;20215;-88
2021/12/11 04:47:48;;;;;;;0.90;0.90;;;7.60;79.90;7.60;95376.00;;;;5062868;28;20277;-88
2021/12/11 04:50:26;;;;;;;1.17;0.90;;;7.70;80.20;7.60;95387.00;;;;5075166;28;20188;-87
2021/12/11 04:52:55;;;;;;;3.57;1.30;;;7.70;80.30;7.60;95381.00;;;;5075108;28;20279;-87
2021/12/11 04:55:51;;;;;;;1.07;0.70;;;7.60;80.20;7.60;95401.00;;;;5073979;28;20235;-87
2021/12/11 04:58:44;;;;;;;1.27;0.63;;;7.70;80.10;7.70;95399.00;;;;5074790;28;20231;-87
2021/12/11 05:01:30;;;;;;;1.30;0.93;;;7.70;81.00;7.70;95401.00;;;;5072861;28;20196;-87
2021/12/11 05:04:35;;;;;;;0.93;0.80;;;7.70;80.00;7.70;95400.00;;;;5066756;28;20196;-87
2021/12/11 05:07:07;;;;;;;1.00;0.90;;;7.70;80.10;7.70;95406.00;;;;5074201;28;20223;-87
2021/12/11 05:09:53;;;;;;;2.40;1.37;;;7.80;80.20;7.70;95409.00;;;;5074929;28;20266;-87
2021/12/11 05:12:31;;;;;;;1.00;0.90;;;7.80;80.00;7.70;95412.00;;;;5070326;28;20200;-87
2021/12/11 05:15:00;;;;;;;0.83;0.83;;;7.80;80.40;7.70;95418.00;;;;5073695;28;20191;-87
2021/12/11 05:17:28;;;;;;;0.80;0.80;;;7.80;80.00;7.70;95415.00;;;;5074592;28;20234;-87
2021/12/11 05:19:55;;;;;;;1.00;0.90;;;7.80;80.20;7.70;95421.00;;;;5074053;28;20768;-87
2021/12/11 05:22:23;;;;;;;1.30;1.20;;;7.80;80.20;7.70;95428.00;;;;5074421;28;20195;-87
2021/12/11 05:24:55;;;;;;;1.47;0.93;;;7.80;80.20;7.70;95433.00;;;;5073417;28;20204;-87
2021/12/11 05:27:23;;;;;;;1.37;0.90;;;7.80;80.40;7.80;95436.00;;;;5074162;28;20206;-87
2021/12/11 05:29:51;;;;;;;0.90;0.90;;;7.70;80.20;7.80;95436.00;;;;5070648;28;20310;-87
2021/12/11 05:32:25;;;;;;;1.40;1.30;;;7.80;80.20;7.80;95444.00;;;;5074346;28;20564;-87
2021/12/11 05:34:53;;;;;;;1.57;0.90;;;7.90;80.10;7.80;95433.00;;;;5072160;28;20194;-87
2021/12/11 05:37:21;;;;;;;0.83;0.83;;;7.80;80.00;7.80;95448.00;;;;5074093;28;20252;-87
2021/12/11 05:39:49;;;;;;;1.10;0.90;;;7.80;80.30;7.80;95460.00;;;;5073933;28;20303;-87
2021/12/11 05:42:17;;;;;;;0.93;0.90;;;7.80;80.20;7.80;95471.00;;;;5073138;28;20654;-87
2021/12/11 05:44:45;;;;;;;1.27;0.87;;;7.80;80.30;7.80;95467.00;;;;5072942;28;20657;-87
2021/12/11 05:47:12;;;;;;;0.70;0.70;;;7.80;80.10;7.80;95462.00;;;;5073643;28;20224;-87
2021/12/11 05:49:43;;;;;;;1.20;1.00;;;7.80;80.20;7.80;95460.00;;;;5073595;28;20226;-88
2021/12/11 05:52:12;;;;;;;1.50;0.90;;;7.90;80.10;7.80;95466.00;;;;5073881;28;20223;-87
2021/12/11 05:54:45;;;;;;;0.83;0.63;;;7.80;80.00;7.80;95471.00;;;;5073012;28;20234;-88
2021/12/11 05:57:15;;;;;;;1.03;0.80;;;7.90;80.10;7.90;95474.00;;;;5073496;28;20227;-87
2021/12/11 05:59:45;;;;;;;1.97;0.90;;;7.90;80.20;7.90;95478.00;;;;5073548;28;20251;-87
2021/12/11 06:02:18;;;;;;;0.80;0.80;;;7.90;80.20;7.90;95485.00;;;;5073963;28;20573;-87
2021/12/11 06:04:51;;;;;;;0.90;0.90;;;7.90;80.10;7.90;95489.00;;;;5072587;28;20657;-87
2021/12/11 06:07:23;;;;;;;1.20;1.10;;;7.90;80.00;7.90;95492.00;;;;5072965;28;20554;-87
2021/12/11 06:10:00;;;;;;;0.70;0.70;;;7.90;80.20;7.90;95486.00;;;;5058316;28;20218;-87
2021/12/11 06:12:28;;;;;;;1.63;0.80;;;8.40;80.50;7.90;95489.00;;;;5072932;28;20644;-87
2021/12/11 06:14:57;;;;;;;1.03;0.90;;;8.30;80.60;7.90;95511.00;;;;5071059;28;20674;-87
2021/12/11 06:17:28;;;;;;;1.73;1.10;;;7.90;80.10;7.90;95508.00;;;;5053161;28;20193;-87
2021/12/11 06:19:59;;;;;;;0.77;0.70;;;7.90;80.10;7.90;95519.00;;;;5053406;28;20705;-87
2021/12/11 06:22:30;;;;;;;0.50;0.50;;;7.90;80.00;7.90;95520.00;;;;5070887;28;20195;-87
2021/12/11 06:25:02;;;;;;;0.70;0.70;;;7.90;80.10;7.90;95521.00;;;;5072200;28;20555;-87
2021/12/11 06:27:32;;;;;;;1.33;0.90;;;7.90;80.30;7.90;95528.00;;;;5056850;28;20248;-87
2021/12/11 06:29:59;;;;;;;0.87;0.87;;;7.90;80.20;7.90;95544.00;;;;5053011;28;20712;-87
2021/12/11 06:32:27;;;;;;;1.23;0.97;;;7.90;80.50;7.90;95552.00;;;;5052910;28;20231;-88
2021/12/11 06:34:58;;;;;;;0.90;0.90;;;7.90;80.50;7.90;95552.00;;;;5051893;28;20205;-87
2021/12/11 06:37:25;;;;;;;0.70;0.70;;;7.90;80.30;7.90;95571.00;;;;5052868;28;20184;-88
2021/12/11 06:39:54;;;;;;;0.80;0.80;;;7.90;80.40;7.90;95571.00;;;;5052981;28;20224;-88
2021/12/11 06:42:22;;;;;;;0.80;0.80;;;7.90;80.40;7.90;95579.00;;;;5070114;28;20212;-87
2021/12/11 06:44:50;;;;;;;1.00;0.90;;;7.90;80.40;7.90;95580.00;;;;5071751;28;20200;-87
2021/12/11 06:47:18;;;;;;;0.97;0.77;;;7.90;80.40;7.80;95578.00;;;;5072443;28;20223;-87
2021/12/11 06:49:46;;;;;;;1.00;0.90;;;7.90;80.60;7.80;95585.00;;;;5072942;28;20216;-87
2021/12/11 06:52:20;;;;;;;1.27;1.10;;;8.00;80.50;7.80;95593.00;;;;5073406;28;20195;-87
2021/12/11 06:54:49;;;;;;;1.10;1.00;;;7.80;80.30;7.80;95605.00;;;;5073213;28;20188;-88
2021/12/11 06:57:17;;;;;;;0.77;0.77;;;7.80;80.60;7.80;95608.00;;;;5086677;28;20212;-88
2021/12/11 06:59:46;;;;;;;0.97;0.97;;;7.80;80.70;7.80;95622.00;;;;5058598;28;20221;-87
2021/12/11 07:02:13;;;;;;;0.87;0.87;;;7.80;80.80;7.80;95622.00;;;;5070214;28;20196;-87
2021/12/11 07:04:40;;;;;;;0.93;0.90;;;7.80;80.70;7.80;95628.00;;;;5072275;28;20210;-87
2021/12/11 07:07:08;;;;;;;1.13;0.80;;;7.70;80.80;7.70;95632.00;;;;5072273;28;20222;-87
2021/12/11 07:09:37;;;;;;;0.97;0.97;;;7.70;81.00;7.70;95635.00;;;;5075428;28;20215;-86
2021/12/11 07:12:06;;;;;;;1.53;1.43;;;8.50;81.60;7.80;95638.00;;;;5076610;28;20204;-86
2021/12/11 07:14:33;;;;;;;1.10;1.10;;;7.70;81.30;7.80;95645.00;;;;5076587;28;20202;-86
2021/12/11 07:17:01;;;;;;;1.20;1.10;;;7.70;81.50;7.80;95649.00;;;;5078991;28;20676;-86
2021/12/11 07:19:28;;;;;;;1.77;1.67;;;7.70;81.60;7.90;95653.00;;;;5079660;28;20230;-87
2021/12/11 07:21:56;;;;;;;2.70;1.63;;;7.90;81.80;7.90;95664.00;;;;5078203;28;20188;-88
2021/12/11 07:24:32;;;;;;;2.77;1.80;;;7.70;81.70;7.90;95682.00;;;;5076236;28;20598;-89
2021/12/11 07:27:08;;;;;;;2.67;2.30;;;7.80;81.80;8.00;95675.00;;;;5075153;28;20225;-86
2021/12/11 07:29:36;;;;;;;2.17;1.97;;;7.80;81.70;8.00;95684.00;;;;5086469;28;20212;-87
2021/12/11 07:32:09;;;;;;;1.90;1.80;;;7.90;81.90;8.00;95690.00;;;;5118617;23;20225;-86
2021/12/11 07:34:43;;;;;;;2.07;1.87;;;7.80;82.00;8.00;95695.00;;;;5128361;27;20606;-85
2021/12/11 07:37:11;;;;;;;2.23;2.13;;;7.80;82.00;8.10;95702.00;;;;5123128;22;20595;-88
2021/12/11 07:39:38;;;;;;;2.47;2.03;;;7.80;82.00;8.10;95705.00;;;;5075473;28;20184;-87
2021/12/11 07:42:07;;;;;;;2.83;2.47;;;7.80;81.80;8.10;95714.00;;;;5087459;28;20199;-88
2021/12/11 07:44:35;;;;;;;2.20;2.10;;;7.80;81.80;8.10;95725.00;;;;5082711;28;20287;-87
2021/12/11 07:47:04;;;;;;;2.30;2.10;;;7.80;82.00;8.10;95724.00;;;;5091342;28;20223;-87
2021/12/11 07:49:32;;;;;;;1.80;1.70;;;7.80;82.00;8.10;95725.00;;;;5092556;28;20200;-88
2021/12/11 07:51:59;;;;;;;1.87;1.77;;;8.70;82.70;8.10;95730.00;;;;5091707;28;20700;-88
2021/12/11 07:54:26;;;;;;;1.57;1.47;;;7.90;82.00;8.10;95731.00;;;;5087958;28;20191;-88
2021/12/11 07:56:54;;;;;;;2.13;1.93;;;7.90;81.90;8.10;95746.00;;;;5090806;28;20193;-88
2021/12/11 07:59:23;;;;;;;1.97;1.87;;;8.50;82.10;8.10;95751.00;;;;5091599;28;20202;-88
2021/12/11 08:01:53;;;;;;;2.10;1.77;;;7.90;81.60;8.10;95756.00;;;;5085544;28;20199;-89
2021/12/11 08:04:22;;;;;;;1.90;1.77;;;7.90;81.50;8.10;95753.00;;;;5088642;28;20188;-89
2021/12/11 08:06:51;;;;;;;2.83;1.97;;;7.90;81.60;8.10;95757.00;;;;5091979;28;20704;-87
2021/12/11 08:09:26;;;;;;;2.47;2.00;;;7.90;81.50;8.10;95766.00;;;;5084621;28;20191;-88
2021/12/11 08:11:54;;;;;;;1.97;1.77;;;7.90;81.50;8.10;95774.00;;;;5082549;28;20187;-87
2021/12/11 08:14:24;;;;;;;2.07;1.90;;;7.90;81.60;8.20;95767.00;;;;5083999;28;20192;-86
2021/12/11 08:16:56;;;;;;;2.10;1.97;;;7.90;81.70;8.20;95783.00;;;;5077091;28;20547;-87
2021/12/11 08:19:28;;;;;;;2.33;1.67;;;7.90;81.60;8.20;95783.00;;;;5078346;28;20298;-88
2021/12/11 08:21:59;;;;;;;3.50;1.67;;;8.00;81.80;8.20;95793.00;;;;5082035;28;20199;-87
2021/12/11 08:24:29;;;;;;;1.80;1.70;;;8.00;81.80;8.20;95797.00;;;;5078936;28;20637;-89
2021/12/11 08:27:02;;;;;;;2.20;2.10;;;8.00;81.70;8.20;95794.00;;;;5091375;28;20738;-87
2021/12/11 08:29:33;;;;;;;2.50;1.67;;;8.00;81.90;8.20;95802.00;;;;5091386;28;20653;-88
2021/12/11 08:32:01;;;;;;;2.13;1.90;;;8.30;82.00;8.20;95808.00;;;;5091238;28;20201;-89
2021/12/11 08:34:31;;;;;;;2.37;2.17;;;8.00;81.90;8.20;95812.00;;;;5088255;28;20397;-85
2021/12/11 08:37:00;;;;;;;2.20;2.10;;;9.40;83.00;8.20;95817.00;;;;5079521;28;20228;-88
2021/12/11 08:39:28;;;;;;;2.53;2.30;;;8.00;81.90;8.20;95822.00;;;;5076258;28;20672;-87
2021/12/11 08:41:58;;;;;;;2.00;1.90;;;9.60;82.80;8.20;95828.00;;;;5092008;28;20740;-89
2021/12/11 08:44:28;;;;;;;1.87;1.77;;;8.00;81.70;8.30;95837.00;;;;5089735;28;20253;-88
2021/12/11 08:47:01;;;;;;;1.83;1.73;;;8.80;82.40;8.30;95827.00;;;;5080024;28;20710;-89
2021/12/11 08:49:33;;;;;;;1.53;1.50;;;8.30;82.20;8.30;95839.00;;;;5088262;28;20272;-88
2021/12/11 08:52:07;;;;;;;2.20;2.10;;;8.80;82.30;8.30;95843.00;;;;5070992;28;20220;-89
2021/12/11 08:54:36;;;;;;;2.30;2.10;;;9.00;82.40;8.40;95860.00;;;;5075409;28;20277;-88
2021/12/11 08:57:08;;;;;;;3.90;2.40;;;8.10;81.80;8.40;95871.00;;;;5090794;28;20612;-88
2021/12/11 08:59:42;;;;;;;2.57;2.07;;;8.20;81.80;8.40;95870.00;;;;5084713;28;20195;-87
2021/12/11 09:02:16;;;;;;;1.90;1.80;;;8.40;81.60;8.40;95879.00;;;;5080400;28;20199;-88
2021/12/11 09:04:49;;;;;;;2.20;2.10;;;8.20;81.20;8.30;95881.00;;;;5090130;28;20691;-87
2021/12/11 09:07:22;;;;;;;6.23;2.00;;;8.10;81.30;8.30;95891.00;;;;5081816;28;20233;-89
2021/12/11 09:09:58;;;;;;;2.07;1.97;;;8.90;81.80;8.30;95891.00;;;;5077869;28;20195;-87
2021/12/11 09:12:32;;;;;;;2.40;2.30;;;8.20;81.60;8.30;95897.00;;;;5092348;28;20195;-88
2021/12/11 09:15:11;;;;;;;2.30;2.20;;;8.20;81.50;8.30;95903.00;;;;5086882;28;20191;-89
2021/12/11 09:17:45;;;;;;;2.20;2.10;;;8.20;81.70;8.30;95912.00;;;;5086217;28;20282;-89
2021/12/11 09:20:21;;;;;;;2.50;2.40;;;8.20;81.70;8.40;95907.00;;;;5080376;28;20218;-89
2021/12/11 09:22:54;;;;;;;1.90;1.80;;;8.20;81.60;8.40;95921.00;;;;5085434;28;20256;-88
2021/12/11 09:25:27;;;;;;;2.37;2.20;;;8.20;81.60;8.40;95923.00;;;;5088677;28;20259;-87
2021/12/11 09:28:00;;;;;;;2.90;2.70;;;8.20;81.60;8.40;95924.00;;;;5082797;28;20346;-85
2021/12/11 09:30:35;;;;;;;2.80;2.57;;;8.20;81.50;8.40;95934.00;;;;5095061;28;20594;-89
2021/12/11 09:33:09;;;;;;;3.60;3.37;;;8.60;81.60;8.40;95940.00;;;;5083188;28;20286;-87
2021/12/11 09:35:47;;;;;;;2.67;2.47;;;8.20;81.40;8.40;95949.00;;;;5102397;28;20200;-85
2021/12/11 09:38:30;;;;;;;2.33;2.13;;;8.20;81.60;8.40;95954.00;;;;5085377;28;20234;-88
2021/12/11 09:40:57;;;;;;;2.00;1.90;;;8.20;81.20;8.40;95955.00;;;;5099831;28;20201;-89
2021/12/11 09:43:48;;;;;;;1.70;1.60;;;8.10;81.40;8.40;95953.00;;;;5098883;28;20601;-86
2021/12/11 09:46:20;;;;;;;1.77;1.67;;;8.70;81.70;8.40;95962.00;;;;5095474;28;20197;-89
2021/12/11 09:48:50;;;;;;;1.87;1.77;;;8.10;81.10;8.40;95971.00;;;;5119661;22;20223;-86
2021/12/11 09:51:22;;;;;;;1.80;1.70;;;8.20;81.50;8.40;95965.00;;;;5085301;28;20241;-88
2021/12/11 09:53:54;;;;;;;2.20;2.10;;;8.10;81.50;8.40;95970.00;;;;5095330;28;20203;-88
2021/12/11 09:56:32;;;;;;;2.17;2.00;;;8.10;81.40;8.40;95970.00;;;;5090164;28;20256;-88
2021/12/11 09:59:06;;;;;;;2.50;2.40;;;8.20;81.10;8.40;95978.00;;;;5091406;28;20558;-88
2021/12/11 10:01:38;;;;;;;2.40;2.20;;;8.20;81.20;8.30;95965.00;;;;5093671;28;20222;-87
2021/12/11 10:04:12;;;;;;;2.30;2.20;;;8.60;81.70;8.30;95979.00;;;;5100120;28;20223;-87
2021/12/11 10:06:51;;;;;;;2.20;2.00;;;8.20;81.40;8.30;95989.00;;;;5100396;28;20252;-88
2021/12/11 10:09:24;;;;;;;2.40;2.30;;;8.20;81.30;8.40;95995.00;;;;5090462;28;20719;-87
2021/12/11 10:11:59;;;;;;;2.47;2.30;;;8.70;81.80;8.40;95987.00;;;;5094852;28;20641;-87
2021/12/11 10:14:36;;;;;;;2.57;2.43;;;8.80;81.90;8.40;95993.00;;;;5094687;28;20195;-86
2021/12/11 10:17:11;;;;;;;2.63;2.43;;;9.30;82.20;8.40;95990.00;;;;5104117;28;20285;-87
2021/12/11 10:19:41;;;;;;;2.33;2.13;;;8.20;81.00;8.30;96009.00;;;;5114484;28;20217;-87
2021/12/11 10:22:14;;;;;;;4.70;2.70;;;8.20;81.00;8.30;96009.00;;;;5099768;28;20249;-86
2021/12/11 10:24:42;;;;;;;2.17;2.07;;;8.10;80.80;8.30;96011.00;;;;5094040;28;20650;-85
2021/12/11 10:27:13;;;;;;;2.43;2.33;;;8.10;80.90;8.30;96013.00;;;;5080545;28;20212;-84
2021/12/11 10:29:42;;;;;;;2.37;2.27;;;8.20;80.70;8.40;96017.00;;;;5093093;28;20298;-86
2021/12/11 10:32:17;;;;;;;2.57;2.40;;;9.70;81.50;8.30;96024.00;;;;5108963;28;20195;-84
2021/12/11 10:34:48;;;;;;;2.83;2.63;;;8.10;80.40;8.30;96022.00;;;;5098048;28;20248;-88
2021/12/11 10:37:27;;;;;;;2.77;2.57;;;8.20;80.70;8.40;96033.00;;;;5102240;28;20290;-88
2021/12/11 10:40:00;;;;;;;2.63;2.43;;;8.20;81.00;8.40;96045.00;;;;5106058;28;20214;-86
2021/12/11 10:42:28;;;;;;;2.80;2.60;;;9.60;81.40;8.30;96042.00;;;;5096538;28;20196;-87
2021/12/11 10:45:00;;;;;;;3.00;2.80;;;8.20;80.30;8.30;96041.00;;;;5105606;28;20203;-86
2021/12/11 10:47:35;;;;;;;2.70;2.50;;;8.20;80.30;8.40;96049.00;;;;5074515;28;20237;-85
2021/12/11 10:50:06;;;;;;;2.87;2.67;;;8.20;80.60;8.40;96057.00;;;;5097043;28;20565;-87
2021/12/11 10:52:33;;;;;;;2.87;2.67;;;8.20;80.80;8.40;96059.00;;;;5084990;28;20280;-86
2021/12/11 10:55:06;;;;;;;2.80;2.60;;;8.20;80.60;8.40;96063.00;;;;5088045;28;20584;-88
2021/12/11 10:57:33;;;;;;;2.63;2.43;;;8.20;80.50;8.40;96065.00;;;;5092347;28;20574;-85
2021/12/11 11:00:12;;;;;;;3.30;3.00;;;8.20;80.30;8.40;96065.00;;;;5089118;28;20197;-87
2021/12/11 11:02:39;;;;;;;2.97;2.50;;;8.20;80.30;8.40;96074.00;;;;5093615;28;20558;-87
2021/12/11 11:05:13;;;;;;;3.10;2.90;;;8.20;80.70;8.40;96078.00;;;;5086558;28;20700;-87
2021/12/11 11:07:42;;;;;;;2.90;2.70;;;8.20;80.30;8.40;96083.00;;;;5075592;28;20220;-87
2021/12/11 11:10:17;;;;;;;3.30;3.00;;;8.20;80.20;8.40;96093.00;;;;5087468;28;20230;-88
2021/12/11 11:12:45;;;;;;;3.33;3.13;;;8.30;80.30;8.50;96091.00;;;;5095400;28;20191;-88
2021/12/11 11:15:17;;;;;;;3.03;2.83;;;8.30;80.60;8.50;96097.00;;;;5100821;28;20191;-86
2021/12/11 11:17:44;;;;;;;3.10;2.90;;;8.30;80.50;8.50;96104.00;;;;5084371;28;20271;-86
2021/12/11 11:20:15;;;;;;;3.57;2.97;;;8.30;80.50;8.60;96113.00;;;;5103598;28;20202;-87
2021/12/11 11:22:46;;;;;;;3.50;3.30;;;8.30;80.40;8.60;96119.00;;;;5108563;28;20629;-87
2021/12/11 11:25:18;;;;;;;3.93;3.30;;;8.40;80.50;8.60;96123.00;;;;5100843;28;20214;-87
2021/12/11 11:27:50;;;;;;;2.87;2.67;;;8.40;80.40;8.60;96121.00;;;;5075136;28;20242;-86
2021/12/11 11:30:28;;;;;;;3.10;2.90;;;8.40;80.10;8.60;96127.00;;;;5095862;28;20179;-86